Time;durP1;ratioP1;P1;durP2;ratioP2;P2;SDS_P1;SDS_P2;PMS_P1;PMS_P2;Temp;Humidity;BMP_temperature;BMP_pressure;BME280_temperature;BME280_humidity;BME280_pressure;Samples;Min_cycle;Max_cycle;Signal;HPM_P1;HPM_P2
2024/04/09 00:02:08;;;;;;;;;;;;;;;;;;5453621;26;19934;-73
2024/04/09 00:04:34;;;;;;;;;;;;;;;;;;5452242;26;20313;-73
2024/04/09 00:07:00;;;;;;;;;;;;;;;;;;5454004;26;19937;-73
2024/04/09 00:09:29;;;;;;;;;;;;;;;;;;5451630;26;19928;-73
2024/04/09 00:11:55;;;;;;;;;;;;;;;;;;5453886;26;20369;-73
2024/04/09 00:14:21;;;;;;;;;;;;;;;;;;5451903;26;19936;-73
2024/04/09 00:16:47;;;;;;;;;;;;;;;;;;5453300;26;19936;-73
2024/04/09 00:19:14;;;;;;;;;;;;;;;;;;5453730;26;19936;-73
2024/04/09 00:21:39;;;;;;;;;;;;;;;;;;5453729;26;20026;-73
2024/04/09 00:24:05;;;;;;;;;;;;;;;;;;5453342;26;20343;-72
2024/04/09 00:26:31;;;;;;;;;;;;;;;;;;5453628;26;19936;-72
2024/04/09 00:28:57;;;;;;;;;;;;;;;;;;5453713;26;19928;-72
2024/04/09 00:31:26;;;;;;;;;;;;;;;;;;5453089;26;19936;-73
2024/04/09 00:33:52;;;;;;;;;;;;;;;;;;5451548;26;20373;-73
2024/04/09 00:36:19;;;;;;;;;;;;;;;;;;5453608;26;19928;-73
2024/04/09 00:38:46;;;;;;;;;;;;;;;;;;5452944;26;19936;-73
2024/04/09 00:41:12;;;;;;;;;;;;;;;;;;5454285;26;20250;-73
2024/04/09 00:43:39;;;;;;;;;;;;;;;;;;5455088;26;19998;-73
2024/04/09 00:46:05;;;;;;;;;;;;;;;;;;5454821;26;20353;-73
2024/04/09 00:48:31;;;;;;;;;;;;;;;;;;5455106;26;19935;-73
2024/04/09 00:50:57;;;;;;;;;;;;;;;;;;5456365;26;19928;-73
2024/04/09 00:53:23;;;;;;;;;;;;;;;;;;5456975;26;20001;-73
2024/04/09 00:55:49;;;;;;;;;;;;;;;;;;5456413;26;19928;-73
2024/04/09 00:58:15;;;;;;;;;;;;;;;;;;5454189;26;20364;-73
2024/04/09 01:00:41;;;;;;;;;;;;;;;;;;5456454;26;19939;-73
2024/04/09 01:03:07;;;;;;;;;;;;;;;;;;5456465;26;19928;-72
2024/04/09 01:05:33;;;;;;;;;;;;;;;;;;5456238;26;19997;-73
2024/04/09 01:07:59;;;;;;;;;;;;;;;;;;5456447;26;20289;-73
2024/04/09 01:10:25;;;;;;;;;;;;;;;;;;5456255;26;19928;-73
2024/04/09 01:12:51;;;;;;;;;;;;;;;;;;5454139;26;19928;-73
2024/04/09 01:15:17;;;;;;;;;;;;;;;;;;5454376;26;19935;-73
2024/04/09 01:17:43;;;;;;;;;;;;;;;;;;5456313;26;19960;-73
2024/04/09 01:20:12;;;;;;;;;;;;;;;;;;5455856;26;19955;-73
2024/04/09 01:22:38;;;;;;;;;;;;;;;;;;5456101;26;20266;-73
2024/04/09 01:25:04;;;;;;;;;;;;;;;;;;5454308;26;20010;-72
2024/04/09 01:27:33;;;;;;;;;;;;;;;;;;5455683;26;19937;-72
2024/04/09 01:30:00;;;;;;;;;;;;;;;;;;5456430;26;19936;-72
2024/04/09 01:32:26;;;;;;;;;;;;;;;;;;5456148;26;19997;-72
2024/04/09 01:34:52;;;;;;;;;;;;;;;;;;5455523;26;19937;-73
2024/04/09 01:37:18;;;;;;;;;;;;;;;;;;5455966;26;19929;-73
2024/04/09 01:39:45;;;;;;;;;;;;;;;;;;5456035;26;20392;-73
2024/04/09 01:42:11;;;;;;;;;;;;;;;;;;5455521;26;19936;-73
2024/04/09 01:44:37;;;;;;;;;;;;;;;;;;5454055;26;19928;-73
2024/04/09 01:47:05;;;;;;;;;;;;;;;;;;5454016;26;19935;-72
2024/04/09 01:49:31;;;;;;;;;;;;;;;;;;5453783;26;19929;-73
2024/04/09 01:51:57;;;;;;;;;;;;;;;;;;5455709;26;19935;-73
2024/04/09 01:54:23;;;;;;;;;;;;;;;;;;5453313;26;19936;-73
2024/04/09 01:56:49;;;;;;;;;;;;;;;;;;5454262;26;19938;-72
2024/04/09 01:59:15;;;;;;;;;;;;;;;;;;5456041;26;19936;-72
2024/04/09 02:01:41;;;;;;;;;;;;;;;;;;5453764;26;19928;-72
2024/04/09 02:04:07;;;;;;;;;;;;;;;;;;5455970;26;19936;-72
2024/04/09 02:06:33;;;;;;;;;;;;;;;;;;5454097;26;19936;-72
2024/04/09 02:08:59;;;;;;;;;;;;;;;;;;5455484;26;19933;-72
2024/04/09 02:11:28;;;;;;;;;;;;;;;;;;5453994;26;19931;-72
2024/04/09 02:13:55;;;;;;;;;;;;;;;;;;5456274;26;19972;-72
2024/04/09 02:16:21;;;;;;;;;;;;;;;;;;5457226;26;19929;-72
2024/04/09 02:18:47;;;;;;;;;;;;;;;;;;5454003;26;19929;-71
2024/04/09 02:21:15;;;;;;;;;;;;;;;;;;5455594;26;19928;-72
2024/04/09 02:23:41;;;;;;;;;;;;;;;;;;5455257;26;20257;-72
2024/04/09 02:26:07;;;;;;;;;;;;;;;;;;5453730;26;19997;-72
2024/04/09 02:28:33;;;;;;;;;;;;;;;;;;5455682;26;19929;-71
2024/04/09 02:30:59;;;;;;;;;;;;;;;;;;5453133;26;19997;-71
2024/04/09 02:33:25;;;;;;;;;;;;;;;;;;5455489;26;19935;-71
2024/04/09 02:35:51;;;;;;;;;;;;;;;;;;5455444;26;20326;-72
2024/04/09 02:38:17;;;;;;;;;;;;;;;;;;5454846;26;19929;-72
2024/04/09 02:40:43;;;;;;;;;;;;;;;;;;5455526;26;20373;-72
2024/04/09 02:43:09;;;;;;;;;;;;;;;;;;5455391;26;20267;-72
2024/04/09 02:45:35;;;;;;;;;;;;;;;;;;5455046;26;20326;-71
2024/04/09 02:48:00;;;;;;;;;;;;;;;;;;5455310;26;19929;-72
2024/04/09 02:50:26;;;;;;;;;;;;;;;;;;5452948;26;19929;-72
2024/04/09 02:52:53;;;;;;;;;;;;;;;;;;5455288;26;19928;-72
2024/04/09 02:55:19;;;;;;;;;;;;;;;;;;5454779;26;19935;-72
2024/04/09 02:57:45;;;;;;;;;;;;;;;;;;5452792;26;19997;-72
2024/04/09 03:00:19;;;;;;;;;;;;;;;;;;5455099;26;19936;-71
2024/04/09 03:02:45;;;;;;;;;;;;;;;;;;5454987;26;20277;-71
2024/04/09 03:05:10;;;;;;;;;;;;;;;;;;5453852;26;19939;-71
2024/04/09 03:07:36;;;;;;;;;;;;;;;;;;5454931;26;20441;-71
2024/04/09 03:10:02;;;;;;;;;;;;;;;;;;5454905;26;20288;-72
2024/04/09 03:12:28;;;;;;;;;;;;;;;;;;5454301;26;19935;-71
2024/04/09 03:14:54;;;;;;;;;;;;;;;;;;5453038;26;19929;-71
2024/04/09 03:17:21;;;;;;;;;;;;;;;;;;5454719;26;20026;-71
2024/04/09 03:19:46;;;;;;;;;;;;;;;;;;5454327;26;19964;-71
2024/04/09 03:22:12;;;;;;;;;;;;;;;;;;5454760;26;19940;-71
2024/04/09 03:24:38;;;;;;;;;;;;;;;;;;5454832;26;19928;-71
2024/04/09 03:27:04;;;;;;;;;;;;;;;;;;5454247;26;19929;-71
2024/04/09 03:29:30;;;;;;;;;;;;;;;;;;5454790;26;19935;-71
2024/04/09 03:31:56;;;;;;;;;;;;;;;;;;5454618;26;19928;-71
2024/04/09 03:34:22;;;;;;;;;;;;;;;;;;5452193;26;19928;-70
2024/04/09 03:36:48;;;;;;;;;;;;;;;;;;5454691;26;19928;-72
2024/04/09 03:39:15;;;;;;;;;;;;;;;;;;5454545;26;19948;-72
2024/04/09 03:41:41;;;;;;;;;;;;;;;;;;5452192;26;19929;-72
2024/04/09 03:44:07;;;;;;;;;;;;;;;;;;5454476;26;19938;-72
2024/04/09 03:46:33;;;;;;;;;;;;;;;;;;5454246;26;19929;-72
2024/04/09 03:48:59;;;;;;;;;;;;;;;;;;5453951;26;20293;-72
2024/04/09 03:51:25;;;;;;;;;;;;;;;;;;5454327;26;19940;-72
2024/04/09 03:53:51;;;;;;;;;;;;;;;;;;5453542;26;19935;-70
2024/04/09 03:56:17;;;;;;;;;;;;;;;;;;5454125;26;19928;-70
2024/04/09 03:58:43;;;;;;;;;;;;;;;;;;5454043;26;19940;-71
2024/04/09 04:01:10;;;;;;;;;;;;;;;;;;5453598;26;20369;-70
2024/04/09 04:03:36;;;;;;;;;;;;;;;;;;5453892;26;20252;-70
2024/04/09 04:06:02;;;;;;;;;;;;;;;;;;5454001;26;19928;-70
2024/04/09 04:08:28;;;;;;;;;;;;;;;;;;5453540;26;20365;-71
2024/04/09 04:10:54;;;;;;;;;;;;;;;;;;5453823;26;19936;-73
2024/04/09 04:13:20;;;;;;;;;;;;;;;;;;5453982;26;19929;-72
2024/04/09 04:15:46;;;;;;;;;;;;;;;;;;5453474;26;19938;-71
2024/04/09 04:18:12;;;;;;;;;;;;;;;;;;5457492;26;19928;-72
2024/04/09 04:20:38;;;;;;;;;;;;;;;;;;5455575;26;20001;-72
2024/04/09 04:23:04;;;;;;;;;;;;;;;;;;5457004;26;19936;-72
2024/04/09 04:25:30;;;;;;;;;;;;;;;;;;5455267;26;19939;-71
2024/04/09 04:27:56;;;;;;;;;;;;;;;;;;5457309;26;19948;-70
2024/04/09 04:30:22;;;;;;;;;;;;;;;;;;5456793;26;19939;-72
2024/04/09 04:32:48;;;;;;;;;;;;;;;;;;5457017;26;19928;-72
2024/04/09 04:35:15;;;;;;;;;;;;;;;;;;5457250;26;19935;-72
2024/04/09 04:37:40;;;;;;;;;;;;;;;;;;5456299;26;19935;-71
2024/04/09 04:40:09;;;;;;;;;;;;;;;;;;5457095;26;19928;-72
2024/04/09 04:42:35;;;;;;;;;;;;;;;;;;5456898;26;20315;-72
2024/04/09 04:45:01;;;;;;;;;;;;;;;;;;5454731;26;19928;-72
2024/04/09 04:47:28;;;;;;;;;;;;;;;;;;5456892;26;20237;-71
2024/04/09 04:49:54;;;;;;;;;;;;;;;;;;5456950;26;19929;-71
2024/04/09 04:52:20;;;;;;;;;;;;;;;;;;5456524;26;19936;-72
2024/04/09 04:54:46;;;;;;;;;;;;;;;;;;5456594;26;19936;-72
2024/04/09 04:57:12;;;;;;;;;;;;;;;;;;5456020;26;19928;-72
2024/04/09 04:59:38;;;;;;;;;;;;;;;;;;5456598;26;19936;-72
2024/04/09 05:02:04;;;;;;;;;;;;;;;;;;5456568;26;19928;-72
2024/04/09 05:04:30;;;;;;;;;;;;;;;;;;5455899;26;19936;-72
2024/04/09 05:06:56;;;;;;;;;;;;;;;;;;5456680;26;19935;-74
2024/04/09 05:09:22;;;;;;;;;;;;;;;;;;5456771;26;19929;-72
2024/04/09 05:11:48;;;;;;;;;;;;;;;;;;5456009;26;19970;-74
2024/04/09 05:14:15;;;;;;;;;;;;;;;;;;5456443;26;20369;-72
2024/04/09 05:16:41;;;;;;;;;;;;;;;;;;5454420;26;19936;-74
2024/04/09 05:19:07;;;;;;;;;;;;;;;;;;5453991;26;20318;-75
2024/04/09 05:21:35;;;;;;;;;;;;;;;;;;5445501;26;19929;-71
2024/04/09 05:24:02;;;;;;;;;;;;;;;;;;5432015;26;19929;-67
2024/04/09 05:26:28;;;;;;;;;;;;;;;;;;5421090;26;19936;-66
2024/04/09 05:28:55;;;;;;;;;;;;;;;;;;5418989;26;19929;-66
2024/04/09 05:31:21;;;;;;;;;;;;;;;;;;5445245;26;19928;-66
2024/04/09 05:33:47;;;;;;;;;;;;;;;;;;5427330;26;19998;-67
2024/04/09 05:36:12;;;;;;;;;;;;;;;;;;5428543;26;19965;-69
2024/04/09 05:38:38;;;;;;;;;;;;;;;;;;5424925;26;20648;-69
2024/04/09 05:41:05;;;;;;;;;;;;;;;;;;5438044;26;20620;-69
2024/04/09 05:43:31;;;;;;;;;;;;;;;;;;5416910;26;19935;-68
2024/04/09 05:45:56;;;;;;;;;;;;;;;;;;5438943;26;20261;-69
2024/04/09 05:48:22;;;;;;;;;;;;;;;;;;5429547;26;20413;-68
2024/04/09 05:50:50;;;;;;;;;;;;;;;;;;5444152;26;19983;-69
2024/04/09 05:53:16;;;;;;;;;;;;;;;;;;5414760;26;19936;-69
2024/04/09 05:55:42;;;;;;;;;;;;;;;;;;5410237;26;20337;-67
2024/04/09 05:58:08;;;;;;;;;;;;;;;;;;5431292;26;19940;-69
2024/04/09 06:00:35;;;;;;;;;;;;;;;;;;5415145;26;20310;-69
2024/04/09 06:03:01;;;;;;;;;;;;;;;;;;5446228;26;19929;-75
2024/04/09 06:05:27;;;;;;;;;;;;;;;;;;5449836;26;19928;-73
2024/04/09 06:07:53;;;;;;;;;;;;;;;;;;5441588;26;19929;-71
2024/04/09 06:10:19;;;;;;;;;;;;;;;;;;5454402;26;19997;-70
2024/04/09 06:12:45;;;;;;;;;;;;;;;;;;5452977;26;19929;-72
2024/04/09 06:15:11;;;;;;;;;;;;;;;;;;5442769;26;19929;-71
2024/04/09 06:17:37;;;;;;;;;;;;;;;;;;5432866;26;20368;-72
2024/04/09 06:20:04;;;;;;;;;;;;;;;;;;5418192;26;20298;-73
2024/04/09 06:22:30;;;;;;;;;;;;;;;;;;5421828;26;19929;-74
2024/04/09 06:24:56;;;;;;;;;;;;;;;;;;5451054;26;20652;-71
2024/04/09 06:27:22;;;;;;;;;;;;;;;;;;5441931;26;19944;-69
2024/04/09 06:29:48;;;;;;;;;;;;;;;;;;5440490;26;20033;-75
2024/04/09 06:32:14;;;;;;;;;;;;;;;;;;5432487;26;19929;-68
2024/04/09 06:34:42;;;;;;;;;;;;;;;;;;5421588;26;19937;-67
2024/04/09 06:37:08;;;;;;;;;;;;;;;;;;5413909;26;20313;-70
2024/04/09 06:39:34;;;;;;;;;;;;;;;;;;5448167;26;20028;-69
2024/04/09 06:42:02;;;;;;;;;;;;;;;;;;5427216;26;19940;-71
2024/04/09 06:44:28;;;;;;;;;;;;;;;;;;5418643;26;19929;-73
2024/04/09 06:46:54;;;;;;;;;;;;;;;;;;5445778;26;20320;-71
2024/04/09 06:49:20;;;;;;;;;;;;;;;;;;5439081;26;19932;-71
2024/04/09 06:51:46;;;;;;;;;;;;;;;;;;5436022;26;19933;-72
2024/04/09 06:54:12;;;;;;;;;;;;;;;;;;5439864;26;19939;-72
2024/04/09 06:56:38;;;;;;;;;;;;;;;;;;5424697;26;19935;-70
2024/04/09 06:59:04;;;;;;;;;;;;;;;;;;5416706;26;20261;-69
2024/04/09 07:01:30;;;;;;;;;;;;;;;;;;5438352;26;19928;-69
2024/04/09 07:03:57;;;;;;;;;;;;;;;;;;5448807;26;19935;-68
2024/04/09 07:06:22;;;;;;;;;;;;;;;;;;5446412;26;19929;-71
2024/04/09 07:08:51;;;;;;;;;;;;;;;;;;5445681;26;19929;-71
2024/04/09 07:11:17;;;;;;;;;;;;;;;;;;5448809;26;19941;-71
2024/04/09 07:13:43;;;;;;;;;;;;;;;;;;5426496;26;20024;-74
2024/04/09 07:16:09;;;;;;;;;;;;;;;;;;5424518;26;19929;-71
2024/04/09 07:18:35;;;;;;;;;;;;;;;;;;5420955;26;19997;-72
2024/04/09 07:21:01;;;;;;;;;;;;;;;;;;5412945;26;19956;-73
2024/04/09 07:23:27;;;;;;;;;;;;;;;;;;5426589;26;20364;-70
2024/04/09 07:25:53;;;;;;;;;;;;;;;;;;5426091;26;19956;-69
2024/04/09 07:28:19;;;;;;;;;;;;;;;;;;5416486;26;20006;-69
2024/04/09 07:30:45;;;;;;;;;;;;;;;;;;5412588;26;19994;-70
2024/04/09 07:33:11;;;;;;;;;;;;;;;;;;5414278;26;20369;-69
2024/04/09 07:35:37;;;;;;;;;;;;;;;;;;5433486;26;19960;-71
2024/04/09 07:38:03;;;;;;;;;;;;;;;;;;5447947;26;20029;-70
2024/04/09 07:40:29;;;;;;;;;;;;;;;;;;5448059;26;20356;-70
2024/04/09 07:42:55;;;;;;;;;;;;;;;;;;5426587;26;20006;-69
2024/04/09 07:45:21;;;;;;;;;;;;;;;;;;5442136;26;19937;-69
2024/04/09 07:47:49;;;;;;;;;;;;;;;;;;5445569;26;19939;-68
2024/04/09 07:51:40;;;;;;;;;;;;;;;;;;5538350;25;20263;-68
2024/04/09 07:56:02;;;;;;;;;;;;;;;;;;5452635;26;19928;-68
2024/04/09 08:01:27;;;;;;;;;;;;;;;;;;5540174;25;19927;-67
2024/04/09 08:03:53;;;;;;;;;;;;;;;;;;5520574;25;20383;-68
2024/04/09 08:06:19;;;;;;;;;;;;;;;;;;5550066;25;19940;-68
2024/04/09 08:08:45;;;;;;;;;;;;;;;;;;5556777;25;20039;-69
2024/04/09 08:11:11;;;;;;;;;;;;;;;;;;5583371;25;20378;-68
2024/04/09 08:13:37;;;;;;;;;;;;;;;;;;5543833;25;19979;-69
2024/04/09 08:16:04;;;;;;;;;;;;;;;;;;5532464;25;20320;-69
2024/04/09 08:18:30;;;;;;;;;;;;;;;;;;5573207;25;19994;-70
2024/04/09 08:22:44;;;;;;;;;;;;;;;;;;5604344;25;20266;-69
2024/04/09 08:25:10;;;;;;;;;;;;;;;;;;5619378;25;19926;-70
2024/04/09 08:27:37;;;;;;;;;;;;;;;;;;5619281;25;19958;-72
2024/04/09 08:31:33;;;;;;;;;;;;;;;;;;5540803;25;19935;-70
2024/04/09 08:33:59;;;;;;;;;;;;;;;;;;5507035;25;20368;-70
2024/04/09 08:36:27;;;;;;;;;;;;;;;;;;5507332;25;19927;-71
2024/04/09 08:38:53;;;;;;;;;;;;;;;;;;5499414;25;20202;-74
2024/04/09 08:42:54;;;;;;;;;;;;;;;;;;5403216;26;19929;-71
2024/04/09 08:45:37;;;;;;;;;;;;;;;;;;5611100;25;19938;-66
2024/04/09 08:48:03;;;;;;;;;;;;;;;;;;5578342;25;20465;-66
2024/04/09 08:50:29;;;;;;;;;;;;;;;;;;5579407;25;19937;-66
2024/04/09 08:52:55;;;;;;;;;;;;;;;;;;5612551;25;19930;-66
2024/04/09 08:55:21;;;;;;;;;;;;;;;;;;5608308;25;19926;-65
2024/04/09 08:59:57;;;;;;;;;;;;;;;;;;5567814;25;19933;-64
2024/04/09 09:02:23;;;;;;;;;;;;;;;;;;5551609;25;19928;-65
2024/04/09 09:06:40;;;;;;;;;;;;;;;;;;5461791;26;19929;-65
2024/04/09 09:11:55;;;;;;;;;;;;;;;;;;5612987;25;19926;-65
2024/04/09 09:16:14;;;;;;;;;;;;;;;;;;5462850;26;19928;-70
2024/04/09 09:18:40;;;;;;;;;;;;;;;;;;5438869;26;19929;-69
2024/04/09 09:21:06;;;;;;;;;;;;;;;;;;5460938;26;19939;-69
2024/04/09 09:27:29;;;;;;;;;;;;;;;;;;5574785;25;19955;-72
2024/04/09 09:32:27;;;;;;;;;;;;;;;;;;5577381;25;19937;-72
2024/04/09 09:34:55;;;;;;;;;;;;;;;;;;5551864;25;19928;-71
2024/04/09 09:37:21;;;;;;;;;;;;;;;;;;5555134;25;19939;-73
2024/04/09 09:39:47;;;;;;;;;;;;;;;;;;5517416;25;19927;-72
2024/04/09 09:42:13;;;;;;;;;;;;;;;;;;5537435;25;19927;-72
2024/04/09 09:44:39;;;;;;;;;;;;;;;;;;5541468;25;20636;-72
2024/04/09 09:47:05;;;;;;;;;;;;;;;;;;5541750;25;19928;-71
2024/04/09 09:51:08;;;;;;;;;;;;;;;;;;5579828;25;19927;-70
2024/04/09 09:53:34;;;;;;;;;;;;;;;;;;5581530;25;19927;-71
2024/04/09 09:56:59;;;;;;;;;;;;;;;;;;5620037;25;20359;-69
2024/04/09 09:59:26;;;;;;;;;;;;;;;;;;5620638;25;19933;-70
2024/04/09 10:01:52;;;;;;;;;;;;;;;;;;5619759;25;19938;-71
2024/04/09 10:04:18;;;;;;;;;;;;;;;;;;5618471;25;19993;-71
2024/04/09 10:07:33;;;;;;;;;;;;;;;;;;5615016;25;19927;-72
2024/04/09 10:10:34;;;;;;;;;;;;;;;;;;5460200;26;19929;-71
2024/04/09 10:13:00;;;;;;;;;;;;;;;;;;5429270;26;19936;-72
2024/04/09 10:15:26;;;;;;;;;;;;;;;;;;5428785;26;20250;-72
2024/04/09 10:17:52;;;;;;;;;;;;;;;;;;5429128;26;19993;-69
2024/04/09 10:22:37;;;;;;;;;;;;;;;;;;5463148;26;19928;-69
2024/04/09 10:26:25;;;;;;;;;;;;;;;;;;5575229;25;19933;-70
2024/04/09 10:28:51;;;;;;;;;;;;;;;;;;5555451;25;19927;-71
2024/04/09 10:31:18;;;;;;;;;;;;;;;;;;5539782;25;19995;-71
2024/04/09 10:33:44;;;;;;;;;;;;;;;;;;5507569;25;20001;-71
2024/04/09 10:36:12;;;;;;;;;;;;;;;;;;5550487;25;20368;-73
2024/04/09 10:38:41;;;;;;;;;;;;;;;;;;5510766;25;19927;-72
2024/04/09 10:43:19;;;;;;;;;;;;;;;;;;5596543;25;19938;-72
2024/04/09 10:45:45;;;;;;;;;;;;;;;;;;5543486;25;20356;-73
2024/04/09 10:48:11;;;;;;;;;;;;;;;;;;5541447;25;19946;-74
2024/04/09 10:53:50;;;;;;;;;;;;;;;;;;5530789;25;19943;-71
2024/04/09 10:56:16;;;;;;;;;;;;;;;;;;5503848;25;19939;-73
2024/04/09 10:58:42;;;;;;;;;;;;;;;;;;5481582;26;19991;-71
2024/04/09 11:01:14;;;;;;;;;;;;;;;;;;5503173;25;19934;-74
2024/04/09 11:03:40;;;;;;;;;;;;;;;;;;5459344;25;19995;-75
2024/04/09 11:06:06;;;;;;;;;;;;;;;;;;5506689;25;19936;-71
2024/04/09 11:08:32;;;;;;;;;;;;;;;;;;5539892;25;19928;-71
2024/04/09 11:11:00;;;;;;;;;;;;;;;;;;5476682;25;20448;-72
2024/04/09 11:13:26;;;;;;;;;;;;;;;;;;5513084;25;19931;-73
2024/04/09 11:15:52;;;;;;;;;;;;;;;;;;5503603;25;20016;-72
2024/04/09 11:18:20;;;;;;;;;;;;;;;;;;5539444;25;20475;-76
2024/04/09 11:20:47;;;;;;;;;;;;;;;;;;5514275;25;19928;-66
2024/04/09 11:23:12;;;;;;;;;;;;;;;;;;5515201;25;19976;-73
2024/04/09 11:25:38;;;;;;;;;;;;;;;;;;5495057;25;19943;-73
2024/04/09 11:28:04;;;;;;;;;;;;;;;;;;5531760;25;19935;-71
2024/04/09 11:30:34;;;;;;;;;;;;;;;;;;5519191;25;19928;-72
2024/04/09 11:32:59;;;;;;;;;;;;;;;;;;5510739;25;19928;-73
2024/04/09 11:35:25;;;;;;;;;;;;;;;;;;5513836;25;19927;-73
2024/04/09 11:37:51;;;;;;;;;;;;;;;;;;5505079;26;19928;-74
2024/04/09 11:40:17;;;;;;;;;;;;;;;;;;5526688;25;19928;-74
2024/04/09 11:42:43;;;;;;;;;;;;;;;;;;5528637;25;19928;-72
2024/04/09 11:45:09;;;;;;;;;;;;;;;;;;5538385;25;19931;-72
2024/04/09 11:47:35;;;;;;;;;;;;;;;;;;5517423;25;20037;-72
2024/04/09 11:50:04;;;;;;;;;;;;;;;;;;5508260;25;19940;-71
2024/04/09 11:52:30;;;;;;;;;;;;;;;;;;5528678;25;19940;-72
2024/04/09 11:54:56;;;;;;;;;;;;;;;;;;5505434;26;20015;-70
2024/04/09 11:57:22;;;;;;;;;;;;;;;;;;5529624;25;19935;-71
2024/04/09 11:59:48;;;;;;;;;;;;;;;;;;5511763;25;19939;-71
2024/04/09 12:02:14;;;;;;;;;;;;;;;;;;5544247;25;20356;-70
2024/04/09 12:04:40;;;;;;;;;;;;;;;;;;5519820;25;19943;-72
2024/04/09 12:07:09;;;;;;;;;;;;;;;;;;5470920;26;19928;-71
2024/04/09 12:09:36;;;;;;;;;;;;;;;;;;5462254;26;20321;-73
2024/04/09 12:12:02;;;;;;;;;;;;;;;;;;5528572;26;20355;-72
2024/04/09 12:14:28;;;;;;;;;;;;;;;;;;5528118;26;19935;-70
2024/04/09 12:16:54;;;;;;;;;;;;;;;;;;5505185;26;19934;-71
2024/04/09 12:19:20;;;;;;;;;;;;;;;;;;5522504;26;19936;-72
2024/04/09 12:21:46;;;;;;;;;;;;;;;;;;5489149;26;19932;-72
2024/04/09 12:24:12;;;;;;;;;;;;;;;;;;5506055;26;19935;-71
2024/04/09 12:26:38;;;;;;;;;;;;;;;;;;5496325;26;19938;-70
2024/04/09 12:29:07;;;;;;;;;;;;;;;;;;5497061;26;19927;-70
2024/04/09 12:31:36;;;;;;;;;;;;;;;;;;5527354;26;19934;-71
2024/04/09 12:34:02;;;;;;;;;;;;;;;;;;5527734;26;19934;-71
2024/04/09 12:36:28;;;;;;;;;;;;;;;;;;5527787;26;19927;-71
2024/04/09 12:38:54;;;;;;;;;;;;;;;;;;5517473;26;19985;-72
2024/04/09 12:41:20;;;;;;;;;;;;;;;;;;5494043;26;19938;-71
2024/04/09 12:43:46;;;;;;;;;;;;;;;;;;5466852;26;19954;-74
2024/04/09 12:46:12;;;;;;;;;;;;;;;;;;5495303;26;19940;-73
2024/04/09 12:48:38;;;;;;;;;;;;;;;;;;5487922;26;19928;-72
2024/04/09 12:51:04;;;;;;;;;;;;;;;;;;5503348;26;20364;-71
2024/04/09 12:53:30;;;;;;;;;;;;;;;;;;5495664;26;19939;-72
2024/04/09 12:55:56;;;;;;;;;;;;;;;;;;5495451;26;19959;-72
2024/04/09 12:58:22;;;;;;;;;;;;;;;;;;5523556;26;19939;-72
2024/04/09 13:00:48;;;;;;;;;;;;;;;;;;5522963;26;19927;-72
2024/04/09 13:03:14;;;;;;;;;;;;;;;;;;5524669;26;19939;-72
2024/04/09 13:05:41;;;;;;;;;;;;;;;;;;5525414;26;20359;-72
2024/04/09 13:08:07;;;;;;;;;;;;;;;;;;5525281;26;19995;-72
2024/04/09 13:10:33;;;;;;;;;;;;;;;;;;5491537;26;19935;-72
2024/04/09 13:12:59;;;;;;;;;;;;;;;;;;5523224;26;19942;-72
2024/04/09 13:15:26;;;;;;;;;;;;;;;;;;5523532;26;19935;-72
2024/04/09 13:17:52;;;;;;;;;;;;;;;;;;5527838;26;19927;-72
2024/04/09 13:20:18;;;;;;;;;;;;;;;;;;5528818;26;20419;-71
2024/04/09 13:22:44;;;;;;;;;;;;;;;;;;5528634;26;20309;-72
2024/04/09 13:25:09;;;;;;;;;;;;;;;;;;5528241;26;20017;-71
2024/04/09 13:27:35;;;;;;;;;;;;;;;;;;5528738;26;19935;-71
2024/04/09 13:30:01;;;;;;;;;;;;;;;;;;5528760;26;19928;-71
2024/04/09 13:32:27;;;;;;;;;;;;;;;;;;5527730;26;19952;-70
2024/04/09 13:34:53;;;;;;;;;;;;;;;;;;5528530;26;19931;-72
2024/04/09 13:37:20;;;;;;;;;;;;;;;;;;5528571;26;19934;-72
2024/04/09 13:39:46;;;;;;;;;;;;;;;;;;5527639;26;20371;-71
2024/04/09 13:42:12;;;;;;;;;;;;;;;;;;5495782;26;19938;-71
2024/04/09 13:44:38;;;;;;;;;;;;;;;;;;5528048;26;19928;-71
2024/04/09 13:47:04;;;;;;;;;;;;;;;;;;5528434;26;20359;-71
2024/04/09 13:49:30;;;;;;;;;;;;;;;;;;5525806;26;19927;-72
2024/04/09 13:51:55;;;;;;;;;;;;;;;;;;5527466;26;19927;-72
2024/04/09 13:54:21;;;;;;;;;;;;;;;;;;5495416;26;19931;-72
2024/04/09 13:56:47;;;;;;;;;;;;;;;;;;5527963;26;19932;-71
2024/04/09 13:59:14;;;;;;;;;;;;;;;;;;5484894;26;19928;-70
2024/04/09 14:01:41;;;;;;;;;;;;;;;;;;5490351;26;19947;-70
2024/04/09 14:04:07;;;;;;;;;;;;;;;;;;5490870;26;19943;-70
2024/04/09 14:06:33;;;;;;;;;;;;;;;;;;5457799;26;19997;-70
2024/04/09 14:08:59;;;;;;;;;;;;;;;;;;5458263;26;19932;-70
2024/04/09 14:11:25;;;;;;;;;;;;;;;;;;5458118;26;19932;-70
2024/04/09 14:13:51;;;;;;;;;;;;;;;;;;5490261;26;19996;-70
2024/04/09 14:16:17;;;;;;;;;;;;;;;;;;5490589;26;19947;-70
2024/04/09 14:18:43;;;;;;;;;;;;;;;;;;5458243;26;19935;-70
2024/04/09 14:21:13;;;;;;;;;;;;;;;;;;5490031;26;19932;-71
2024/04/09 14:23:39;;;;;;;;;;;;;;;;;;5490442;26;19928;-70
2024/04/09 14:26:06;;;;;;;;;;;;;;;;;;5458072;26;20365;-69
2024/04/09 14:28:31;;;;;;;;;;;;;;;;;;5482058;26;19936;-70
2024/04/09 14:30:57;;;;;;;;;;;;;;;;;;5458246;26;19928;-70
2024/04/09 14:33:23;;;;;;;;;;;;;;;;;;5490364;26;19939;-70
2024/04/09 14:35:49;;;;;;;;;;;;;;;;;;5490092;26;19935;-71
2024/04/09 14:38:15;;;;;;;;;;;;;;;;;;5490476;26;19961;-71
2024/04/09 14:40:41;;;;;;;;;;;;;;;;;;5490617;26;20306;-70
2024/04/09 14:43:07;;;;;;;;;;;;;;;;;;5484674;26;19928;-69
2024/04/09 14:45:33;;;;;;;;;;;;;;;;;;5525517;26;19927;-70
2024/04/09 14:47:59;;;;;;;;;;;;;;;;;;5492304;26;19934;-70
2024/04/09 14:50:25;;;;;;;;;;;;;;;;;;5502977;26;19928;-70
2024/04/09 14:52:51;;;;;;;;;;;;;;;;;;5489983;26;19939;-71
2024/04/09 14:55:17;;;;;;;;;;;;;;;;;;5481045;26;20370;-72
2024/04/09 14:57:43;;;;;;;;;;;;;;;;;;5457261;26;20337;-71
2024/04/09 15:00:10;;;;;;;;;;;;;;;;;;5489159;26;19934;-70
2024/04/09 15:02:36;;;;;;;;;;;;;;;;;;5489328;26;19980;-71
2024/04/09 15:05:02;;;;;;;;;;;;;;;;;;5489790;26;20450;-71
2024/04/09 15:07:28;;;;;;;;;;;;;;;;;;5489659;26;20326;-71
2024/04/09 15:09:54;;;;;;;;;;;;;;;;;;5489149;26;19952;-70
2024/04/09 15:12:20;;;;;;;;;;;;;;;;;;5488867;26;19934;-71
2024/04/09 15:14:46;;;;;;;;;;;;;;;;;;5487931;26;20104;-71
2024/04/09 15:17:13;;;;;;;;;;;;;;;;;;5488294;26;20337;-70
2024/04/09 15:19:38;;;;;;;;;;;;;;;;;;5487513;26;19936;-70
2024/04/09 15:22:05;;;;;;;;;;;;;;;;;;5500284;26;20372;-70
2024/04/09 15:24:30;;;;;;;;;;;;;;;;;;5473300;26;19935;-69
2024/04/09 15:26:56;;;;;;;;;;;;;;;;;;5487608;26;19928;-71
2024/04/09 15:29:23;;;;;;;;;;;;;;;;;;5487669;26;19939;-68
2024/04/09 15:31:49;;;;;;;;;;;;;;;;;;5486374;26;20360;-71
2024/04/09 15:34:15;;;;;;;;;;;;;;;;;;5455483;26;20389;-70
2024/04/09 15:36:41;;;;;;;;;;;;;;;;;;5488388;26;19932;-70
2024/04/09 15:39:09;;;;;;;;;;;;;;;;;;5489617;26;19931;-70
2024/04/09 15:41:35;;;;;;;;;;;;;;;;;;5492235;26;20005;-70
2024/04/09 15:44:01;;;;;;;;;;;;;;;;;;5459105;26;20432;-71
2024/04/09 15:46:27;;;;;;;;;;;;;;;;;;5457201;26;20419;-71
2024/04/09 15:48:53;;;;;;;;;;;;;;;;;;5492385;26;19940;-72
2024/04/09 15:51:19;;;;;;;;;;;;;;;;;;5491297;26;19928;-71
2024/04/09 15:53:47;;;;;;;;;;;;;;;;;;5492348;26;19928;-71
2024/04/09 15:56:13;;;;;;;;;;;;;;;;;;5506322;26;19928;-72
2024/04/09 15:58:39;;;;;;;;;;;;;;;;;;5516319;26;19979;-71
2024/04/09 16:01:05;;;;;;;;;;;;;;;;;;5485691;26;19927;-70
2024/04/09 16:03:31;;;;;;;;;;;;;;;;;;5489482;26;19996;-71
2024/04/09 16:05:58;;;;;;;;;;;;;;;;;;5527350;26;20281;-70
2024/04/09 16:08:24;;;;;;;;;;;;;;;;;;5528699;26;19927;-71
2024/04/09 16:10:50;;;;;;;;;;;;;;;;;;5528226;26;19937;-71
2024/04/09 16:13:16;;;;;;;;;;;;;;;;;;5528028;26;19927;-70
2024/04/09 16:15:41;;;;;;;;;;;;;;;;;;5527800;26;19928;-71
2024/04/09 16:18:07;;;;;;;;;;;;;;;;;;5527382;26;19931;-71
2024/04/09 16:20:34;;;;;;;;;;;;;;;;;;5496042;26;19955;-71
2024/04/09 16:23:01;;;;;;;;;;;;;;;;;;5528604;26;19927;-70
2024/04/09 16:25:27;;;;;;;;;;;;;;;;;;5528376;26;20420;-70
2024/04/09 16:27:53;;;;;;;;;;;;;;;;;;5528427;26;19932;-71
2024/04/09 16:30:22;;;;;;;;;;;;;;;;;;5528621;26;19942;-71
2024/04/09 16:32:48;;;;;;;;;;;;;;;;;;5526135;26;19928;-71
2024/04/09 16:35:14;;;;;;;;;;;;;;;;;;5528375;26;19938;-71
2024/04/09 16:37:40;;;;;;;;;;;;;;;;;;5528682;26;19927;-71
2024/04/09 16:40:06;;;;;;;;;;;;;;;;;;5528357;26;19995;-72
2024/04/09 16:42:32;;;;;;;;;;;;;;;;;;5528065;26;19927;-72
2024/04/09 16:45:00;;;;;;;;;;;;;;;;;;5528319;26;20370;-73
2024/04/09 16:47:26;;;;;;;;;;;;;;;;;;5527762;26;19927;-70
2024/04/09 16:49:52;;;;;;;;;;;;;;;;;;5528219;26;20325;-70
2024/04/09 16:52:18;;;;;;;;;;;;;;;;;;5495310;26;19927;-71
2024/04/09 16:54:44;;;;;;;;;;;;;;;;;;5493292;26;19931;-71
2024/04/09 16:58:21;;;;;;;;;;;;;;;;;;5621821;25;20266;-71
2024/04/09 17:00:47;;;;;;;;;;;;;;;;;;5622025;25;19927;-71
2024/04/09 17:03:14;;;;;;;;;;;;;;;;;;5621335;25;19926;-71
2024/04/09 17:05:40;;;;;;;;;;;;;;;;;;5621699;25;19934;-71
2024/04/09 17:08:06;;;;;;;;;;;;;;;;;;5587821;25;19978;-70
2024/04/09 17:10:32;;;;;;;;;;;;;;;;;;5585740;25;19926;-72
2024/04/09 17:14:54;;;;;;;;;;;;;;;;;;5622314;25;19926;-72
2024/04/09 17:17:21;;;;;;;;;;;;;;;;;;5621743;25;19926;-72
2024/04/09 17:20:56;;;;;;;;;;;;;;;;;;5621775;25;19926;-72
2024/04/09 17:23:24;;;;;;;;;;;;;;;;;;5621893;25;19932;-71